Boggs, West Virginia
Current Conditions -  °F | °C
As of 1:15 PM on Thursday 29 Jan 2015 (Local Time) from KLWB Reporting Station
Unknown Precip Unknown Precip  
Wind Chill: 33°   Ceiling: 5000
Heat Index: 33°   Visibility: 4mi
Dew Point: 25°   Wind: 0mph
Humidity: 73%   Direction: NA
Pressure: 30.02"   Gusts: NA
Location:  38.3787°N, 80.4763°W
Report Text: KLWB 291815Z AUTO 00000KT 4SM UP SCT030 SCT034 OVC050 01/M04 A3002 RMK AO2 P0001 T00051039
Loading
Personal Weather Stations






























Interactive Weather Map New forecast layout! Learn more

10-Day Weather Forecast

Advertisements
Track Severe Weather on mobile